Terminal Aerodrome Forecast
Issued by NWS Charleston, WV

Current Version | Previous Version | Graphics & Text | Print | Product List | Glossary On
Versions: 1 2 3 4 5 6 7 8 9 10 11 12 13 14 15 16 17 18 19 20 21
000
FTUS41 KRLX 202326
TAFPKB
TAF
KPKB 202326Z 2100/2124 00000KT P6SM SKC
     FM210800 00000KT 6SM BR SKC
     FM210900 00000KT 5SM BR SKC
     FM211000 00000KT 3SM BR SKC
     FM211200 00000KT 5SM BR SKC
     FM211300 22004KT P6SM FEW045=

USA.gov is the U.S. government's official web portal to all federal, state and local government web resources and services.